Freeman Municipal Airport


Codes: KSER/
Name: Freeman Municipal Airport
City: Seymour
Country: United States
Elevation: 583 ft.

Photos at Freeman Municipal Airport


   Photos courtesy of SpottingLog. You can add your own sightings and photos by signing up for a free trial today.



No photos found.

Weather at Freeman Municipal Airport


Time (UTC)DescriptionTempratureWindCloud coverageVisibilityPressureHumidity
25-Jun-2024 21:00Overcast Clouds29°C9 mph, W99%10000m1011hPa63%
26-Jun-2024 00:00Light Rain29°C13 mph, W99%10000m1011hPa70%
26-Jun-2024 03:00Light Rain24°C7 mph, W100%10000m1012hPa75%
26-Jun-2024 06:00Light Rain20°C4 mph, S99%10000m1012hPa94%
26-Jun-2024 09:00Overcast Clouds20°C4 mph, SW100%10000m1011hPa91%
26-Jun-2024 12:00Light Rain21°C2 mph, SW100%10000m1012hPa88%
26-Jun-2024 15:00Light Rain22°C7 mph, SW100%10000m1011hPa91%
26-Jun-2024 18:00Light Rain23°C0 mph, SE100%10000m1009hPa87%
26-Jun-2024 21:00Moderate Rain25°C11 mph, W100%7943m1008hPa87%
27-Jun-2024 00:00Moderate Rain20°C9 mph, NE100%10000m1009hPa94%
27-Jun-2024 03:00Few Clouds17°C7 mph, N14%10000m1011hPa97%
27-Jun-2024 06:00Clear Sky15°C7 mph, NE10%10000m1011hPa95%
27-Jun-2024 09:00Clear Sky15°C4 mph, N1%10000m1012hPa96%
27-Jun-2024 12:00Clear Sky17°C7 mph, NE2%10000m1014hPa92%
27-Jun-2024 15:00Clear Sky22°C9 mph, NE0%10000m1014hPa67%
27-Jun-2024 18:00Clear Sky25°C7 mph, NE1%10000m1014hPa58%
27-Jun-2024 21:00Broken Clouds26°C7 mph, NE61%10000m1012hPa56%
28-Jun-2024 00:00Broken Clouds24°C4 mph, NE77%10000m1012hPa75%
28-Jun-2024 03:00Broken Clouds18°C7 mph, E55%10000m1013hPa90%
28-Jun-2024 06:00Broken Clouds17°C7 mph, E65%10000m1013hPa91%
28-Jun-2024 09:00Few Clouds15°C4 mph, E20%10000m1013hPa94%
28-Jun-2024 12:00Scattered Clouds17°C4 mph, E29%10000m1014hPa87%
28-Jun-2024 15:00Overcast Clouds24°C9 mph, SE94%10000m1012hPa66%
28-Jun-2024 18:00Broken Clouds29°C9 mph, S80%10000m1010hPa54%
28-Jun-2024 21:00Overcast Clouds28°C9 mph, SW100%10000m1010hPa67%
29-Jun-2024 00:00Overcast Clouds23°C4 mph, SE100%10000m1010hPa85%
29-Jun-2024 03:00Light Rain23°C7 mph, S100%10000m1011hPa91%
29-Jun-2024 06:00Overcast Clouds24°C9 mph, S93%10000m1011hPa89%
29-Jun-2024 09:00Overcast Clouds25°C13 mph, S92%10000m1010hPa86%
29-Jun-2024 12:00Moderate Rain23°C13 mph, SW92%9181m1012hPa95%
29-Jun-2024 15:00Moderate Rain24°C11 mph, SW100%10000m1014hPa96%
29-Jun-2024 18:00Light Rain29°C13 mph, SW100%10000m1014hPa69%
29-Jun-2024 21:00Light Rain28°C13 mph, W100%10000m1014hPa79%
30-Jun-2024 00:00Light Rain26°C4 mph, W100%10000m1015hPa92%
30-Jun-2024 03:00Scattered Clouds21°C7 mph, NW48%10000m1018hPa92%
30-Jun-2024 06:00Broken Clouds18°C9 mph, NW66%10000m1020hPa93%
30-Jun-2024 09:00Clear Sky14°C7 mph, NW10%10000m1021hPa96%
30-Jun-2024 12:00Clear Sky14°C7 mph, N5%10000m1023hPa92%
30-Jun-2024 15:00Clear Sky19°C11 mph, N0%10000m1024hPa67%
30-Jun-2024 18:00Clear Sky23°C11 mph, N0%10000m1023hPa59%